createdAt,value
2023-01-22T00:00:27.586Z,-1.92
2023-01-22T00:02:54.176Z,-1.87
2023-01-22T00:05:20.640Z,-2.10
2023-01-22T00:07:47.297Z,-2.34
2023-01-22T00:10:13.650Z,-2.15
2023-01-22T00:12:41.472Z,-2.05
2023-01-22T00:15:07.849Z,-1.90
2023-01-22T00:17:34.231Z,-1.98
2023-01-22T00:20:00.636Z,-2.00
2023-01-22T00:22:27.379Z,-2.16
2023-01-22T00:24:53.736Z,-2.08
2023-01-22T00:27:20.110Z,-2.01
2023-01-22T00:29:46.616Z,-1.97
2023-01-22T00:32:13.248Z,-1.84
2023-01-22T00:34:40.065Z,-1.72
2023-01-22T00:37:06.407Z,-1.58
2023-01-22T00:39:32.778Z,-1.55
2023-01-22T00:41:59.502Z,-1.67
2023-01-22T00:44:26.149Z,-1.86
2023-01-22T00:46:53.146Z,-1.83
2023-01-22T00:49:19.540Z,-1.74
2023-01-22T00:51:46.136Z,-1.81
2023-01-22T00:54:12.562Z,-1.64
2023-01-22T00:56:38.939Z,-1.94
2023-01-22T00:59:05.293Z,-1.97
2023-01-22T01:01:31.768Z,-1.80
2023-01-22T01:03:58.478Z,-1.81
2023-01-22T01:06:27.907Z,-2.08
2023-01-22T01:08:56.337Z,-2.15
2023-01-22T01:11:24.914Z,-1.88
2023-01-22T01:13:51.268Z,-1.83
2023-01-22T01:16:17.671Z,-1.92
2023-01-22T01:18:44.152Z,-2.00
2023-01-22T01:21:10.518Z,-2.14
2023-01-22T01:23:36.862Z,-2.29
2023-01-22T01:26:03.216Z,-2.14
2023-01-22T01:28:29.632Z,-2.23
2023-01-22T01:30:56.108Z,-2.09
2023-01-22T01:33:22.538Z,-2.00
2023-01-22T01:35:48.936Z,-2.06
2023-01-22T01:38:15.401Z,-2.20
2023-01-22T01:40:41.792Z,-2.23
2023-01-22T01:43:08.181Z,-2.12
2023-01-22T01:45:34.600Z,-2.04
2023-01-22T01:48:01.146Z,-1.99
2023-01-22T01:50:27.542Z,-1.99
2023-01-22T01:52:53.943Z,-1.87
2023-01-22T01:55:21.320Z,-1.83
2023-01-22T01:57:47.653Z,-1.88
2023-01-22T02:00:14.024Z,-1.85
2023-01-22T02:02:40.408Z,-1.80
2023-01-22T02:05:07.776Z,-1.64
2023-01-22T02:07:36.585Z,-1.69
2023-01-22T02:10:03.154Z,-1.62
2023-01-22T02:12:29.795Z,-1.63
2023-01-22T02:14:56.199Z,-1.82
2023-01-22T02:17:22.607Z,-1.67
2023-01-22T02:19:49.178Z,-1.52
2023-01-22T02:22:15.551Z,-1.48
2023-01-22T02:24:42.365Z,-1.65
2023-01-22T02:27:08.934Z,-1.57
2023-01-22T02:29:35.557Z,-1.77
2023-01-22T02:32:02.000Z,-1.76
2023-01-22T02:34:28.352Z,-1.80
2023-01-22T02:36:54.689Z,-1.95
2023-01-22T02:39:21.177Z,-1.75
2023-01-22T02:41:47.739Z,-1.59
2023-01-22T02:44:15.260Z,-1.68
2023-01-22T02:46:41.681Z,-1.74
2023-01-22T02:49:08.141Z,-1.60
2023-01-22T02:51:34.505Z,-1.55
2023-01-22T02:54:00.854Z,-1.54
2023-01-22T02:56:27.243Z,-1.48
2023-01-22T02:58:53.603Z,-1.50
2023-01-22T03:01:20.083Z,-1.43
2023-01-22T03:03:46.553Z,-1.48
2023-01-22T03:06:12.940Z,-1.42
2023-01-22T03:08:39.330Z,-1.47
2023-01-22T03:11:05.895Z,-1.63
2023-01-22T03:13:32.393Z,-1.49
2023-01-22T03:15:58.888Z,-1.41
2023-01-22T03:18:25.280Z,-1.47
2023-01-22T03:20:51.631Z,-1.42
2023-01-22T03:23:17.971Z,-1.46
2023-01-22T03:25:44.305Z,-1.45
2023-01-22T03:28:13.042Z,-1.77
2023-01-22T03:30:39.427Z,-1.76
2023-01-22T03:33:06.079Z,-2.08
2023-01-22T03:35:32.544Z,-1.96
2023-01-22T03:37:58.985Z,-1.92
2023-01-22T03:40:25.356Z,-2.04
2023-01-22T03:42:51.901Z,-2.06
2023-01-22T03:45:18.380Z,-1.92
2023-01-22T03:47:44.761Z,-1.72
2023-01-22T03:50:11.222Z,-1.65
2023-01-22T03:52:37.974Z,-1.80
2023-01-22T03:55:04.334Z,-1.58
2023-01-22T03:57:30.754Z,-1.52
2023-01-22T03:59:57.135Z,-1.52
2023-01-22T04:02:23.552Z,-1.43
2023-01-22T04:04:50.100Z,-1.52
2023-01-22T04:07:16.616Z,-1.38
2023-01-22T04:09:44.030Z,-1.41
2023-01-22T04:12:10.452Z,-1.49
2023-01-22T04:14:36.820Z,-1.43
2023-01-22T04:17:03.221Z,-1.44
2023-01-22T04:19:29.569Z,-1.38
2023-01-22T04:21:55.960Z,-1.34
2023-01-22T04:24:22.517Z,-1.35
2023-01-22T04:26:48.875Z,-1.34
2023-01-22T04:29:15.586Z,-1.36
2023-01-22T04:31:41.948Z,-1.35
2023-01-22T04:34:08.407Z,-1.43
2023-01-22T04:36:35.026Z,-1.70
2023-01-22T04:39:01.542Z,-1.68
2023-01-22T04:41:27.870Z,-1.77
2023-01-22T04:43:54.358Z,-1.78
2023-01-22T04:46:20.765Z,-1.65
2023-01-22T04:48:47.133Z,-1.60
2023-01-22T04:51:13.527Z,-1.94
2023-01-22T04:53:41.262Z,-1.76
2023-01-22T04:56:07.696Z,-1.76
2023-01-22T04:58:36.416Z,-1.70
2023-01-22T05:01:03.040Z,-1.59
2023-01-22T05:03:30.452Z,-1.61
2023-01-22T05:05:57.122Z,-1.66
2023-01-22T05:08:24.762Z,-1.62
2023-01-22T05:10:51.239Z,-1.82
2023-01-22T05:13:17.602Z,-1.82
2023-01-22T05:15:43.956Z,-1.74
2023-01-22T05:18:12.717Z,-2.08
2023-01-22T05:20:39.127Z,-1.86
2023-01-22T05:23:06.447Z,-1.82
2023-01-22T05:25:32.838Z,-2.20
2023-01-22T05:27:59.194Z,-2.10
2023-01-22T05:30:25.830Z,-2.10
2023-01-22T05:32:52.331Z,-2.05
2023-01-22T05:35:19.703Z,-1.94
2023-01-22T05:37:46.084Z,-1.92
2023-01-22T05:40:12.503Z,-1.98
2023-01-22T05:42:38.914Z,-1.85
2023-01-22T05:45:05.466Z,-1.85
2023-01-22T05:47:31.895Z,-2.00
2023-01-22T05:49:58.290Z,-1.99
2023-01-22T05:52:24.819Z,-2.08
2023-01-22T05:54:52.505Z,-2.01
2023-01-22T05:57:19.342Z,-2.12
2023-01-22T05:59:45.702Z,-2.19
2023-01-22T06:02:12.071Z,-2.09
2023-01-22T06:04:39.848Z,-1.98
2023-01-22T06:07:06.216Z,-1.99
2023-01-22T06:09:32.614Z,-2.03
2023-01-22T06:11:59.005Z,-1.87
2023-01-22T06:14:25.562Z,-1.86
2023-01-22T06:16:53.702Z,-1.83
2023-01-22T06:19:20.106Z,-1.70
2023-01-22T06:21:46.846Z,-1.85
2023-01-22T06:24:13.472Z,-1.73
2023-01-22T06:26:39.855Z,-1.92
2023-01-22T06:29:06.348Z,-2.02
2023-01-22T06:31:33.892Z,-1.91
2023-01-22T06:34:02.691Z,-1.85
2023-01-22T06:36:29.083Z,-1.84
2023-01-22T06:38:55.517Z,-2.06
2023-01-22T06:41:22.461Z,-1.98
2023-01-22T06:43:48.833Z,-1.85
2023-01-22T06:46:15.251Z,-2.08
2023-01-22T06:48:41.612Z,-2.03
2023-01-22T06:51:08.060Z,-1.94
2023-01-22T06:53:34.686Z,-1.81
2023-01-22T06:56:01.103Z,-1.73
2023-01-22T06:58:27.493Z,-1.61
2023-01-22T07:00:54.109Z,-1.67
2023-01-22T07:03:27.941Z,-1.66
2023-01-22T07:05:54.677Z,-1.57
2023-01-22T07:08:21.076Z,-1.82
2023-01-22T07:10:47.434Z,-2.00
2023-01-22T07:13:14.214Z,-1.91
2023-01-22T07:15:43.471Z,-2.22
2023-01-22T07:18:10.091Z,-2.21
2023-01-22T07:20:36.639Z,-2.03
2023-01-22T07:23:03.008Z,-1.88
2023-01-22T07:25:30.211Z,-1.76
2023-01-22T07:27:56.637Z,-1.91
2023-01-22T07:30:23.702Z,-1.94
2023-01-22T07:32:51.235Z,-1.85
2023-01-22T07:35:20.466Z,-1.82
2023-01-22T07:37:47.285Z,-1.90
2023-01-22T07:40:13.696Z,-1.82
2023-01-22T07:42:40.480Z,-1.73
2023-01-22T07:45:06.946Z,-1.70
2023-01-22T07:47:35.729Z,-1.75
2023-01-22T07:50:03.641Z,-1.68
2023-01-22T07:52:29.984Z,-1.52
2023-01-22T07:54:58.890Z,-1.42
2023-01-22T07:57:25.561Z,-1.45
2023-01-22T07:59:54.016Z,-1.42
2023-01-22T08:02:20.492Z,-1.79
2023-01-22T08:04:46.878Z,-1.54
2023-01-22T08:07:13.268Z,-1.43
2023-01-22T08:09:41.674Z,-1.30
2023-01-22T08:12:08.065Z,-1.43
2023-01-22T08:14:34.450Z,-1.40
2023-01-22T08:17:00.820Z,-1.20
2023-01-22T08:19:27.178Z,-1.17
2023-01-22T08:21:53.564Z,-1.16
2023-01-22T08:24:19.960Z,-1.12
2023-01-22T08:26:46.598Z,-0.93
2023-01-22T08:29:13.000Z,-0.91
2023-01-22T08:31:40.744Z,-0.93
2023-01-22T08:34:07.491Z,-0.84
2023-01-22T08:36:36.180Z,-0.68
2023-01-22T08:39:02.749Z,-0.57
2023-01-22T08:41:29.539Z,-0.64
2023-01-22T08:43:58.357Z,-0.52
2023-01-22T08:46:24.769Z,-0.77
2023-01-22T08:48:51.169Z,-1.18
2023-01-22T08:51:18.637Z,-1.06
2023-01-22T08:53:49.865Z,-1.15
2023-01-22T08:56:16.247Z,-1.10
2023-01-22T08:58:42.758Z,-1.00
2023-01-22T09:01:09.521Z,-0.87
2023-01-22T09:03:35.885Z,-0.88
2023-01-22T09:06:02.459Z,-0.74
2023-01-22T09:08:28.849Z,-0.63
2023-01-22T09:10:55.256Z,-0.90
2023-01-22T09:13:33.018Z,-0.90
2023-01-22T09:15:59.647Z,-0.91
2023-01-22T09:18:26.110Z,-0.81
2023-01-22T09:20:52.677Z,-0.96
2023-01-22T09:23:21.395Z,-1.08
2023-01-22T09:25:48.224Z,-0.87
2023-01-22T09:28:14.981Z,-0.65
2023-01-22T09:30:42.430Z,-0.41
2023-01-22T09:33:08.878Z,-0.55
2023-01-22T09:35:35.302Z,-0.36
2023-01-22T09:38:01.664Z,-0.38
2023-01-22T09:40:28.020Z,-0.54
2023-01-22T09:42:56.460Z,-0.42
2023-01-22T09:45:23.423Z,-0.28
2023-01-22T09:47:49.839Z,-0.25
2023-01-22T09:50:16.430Z,-0.31
2023-01-22T09:52:43.250Z,-0.42
2023-01-22T09:55:09.625Z,-0.08
2023-01-22T09:57:35.973Z,0.03
2023-01-22T10:00:02.595Z,-0.08
2023-01-22T10:02:29.398Z,0.11
2023-01-22T10:04:55.815Z,0.20
2023-01-22T10:07:22.205Z,0.29
2023-01-22T10:09:48.600Z,0.28
2023-01-22T10:12:16.292Z,0.29
2023-01-22T10:14:43.717Z,0.32
2023-01-22T10:17:15.680Z,0.28
2023-01-22T10:19:44.159Z,0.05
2023-01-22T10:22:10.531Z,0.09
2023-01-22T10:24:36.927Z,0.30
2023-01-22T10:27:03.327Z,-0.30
2023-01-22T10:29:29.728Z,-0.16
2023-01-22T10:31:56.496Z,0.03
2023-01-22T10:34:23.150Z,-0.14
2023-01-22T10:36:49.536Z,-0.06
2023-01-22T10:39:23.328Z,-0.01
2023-01-22T10:41:52.494Z,-0.39
2023-01-22T10:44:19.253Z,-0.18
2023-01-22T10:46:45.613Z,-0.15
2023-01-22T10:49:15.258Z,-0.27
2023-01-22T10:51:41.728Z,-0.31
2023-01-22T10:54:08.141Z,-0.12
2023-01-22T10:56:35.927Z,-0.01
2023-01-22T10:59:02.700Z,0.16
2023-01-22T11:01:29.148Z,-0.32
2023-01-22T11:03:55.573Z,-0.12
2023-01-22T11:06:21.952Z,-0.23
2023-01-22T11:08:48.308Z,-0.05
2023-01-22T11:11:14.643Z,-0.41
2023-01-22T11:13:41.050Z,-0.26
2023-01-22T11:16:07.736Z,-0.03
2023-01-22T11:18:35.097Z,0.22
2023-01-22T11:21:01.665Z,0.46
2023-01-22T11:23:28.035Z,0.58
2023-01-22T11:25:54.366Z,0.37
2023-01-22T11:28:20.700Z,0.32
2023-01-22T11:30:47.162Z,0.55
2023-01-22T11:33:13.611Z,0.39
2023-01-22T11:35:40.755Z,0.53
2023-01-22T11:38:07.149Z,0.41
2023-01-22T11:40:34.528Z,0.33
2023-01-22T11:43:02.924Z,0.38
2023-01-22T11:45:30.297Z,0.20
2023-01-22T11:47:56.697Z,0.14
2023-01-22T11:50:23.063Z,0.22
2023-01-22T11:52:49.441Z,0.15
2023-01-22T11:55:15.820Z,0.02
2023-01-22T11:57:42.286Z,-0.30
2023-01-22T12:00:09.281Z,-0.19
2023-01-22T12:02:35.686Z,-0.06
2023-01-22T12:05:02.059Z,-0.04
2023-01-22T12:07:29.205Z,0.12
2023-01-22T12:09:56.167Z,0.31
2023-01-22T12:12:23.059Z,-0.09
2023-01-22T12:14:54.704Z,0.32
2023-01-22T12:17:21.254Z,0.25
2023-01-22T12:19:48.854Z,-0.15
2023-01-22T12:22:15.246Z,-0.10
2023-01-22T12:24:41.608Z,0.07
2023-01-22T12:27:12.529Z,0.06
2023-01-22T12:29:38.989Z,0.05
2023-01-22T12:32:08.361Z,-0.08
2023-01-22T12:34:34.758Z,0.26
2023-01-22T12:37:02.170Z,-0.24
2023-01-22T12:39:28.896Z,-0.26
2023-01-22T12:41:56.337Z,-0.01
2023-01-22T12:44:29.812Z,-0.07
2023-01-22T12:46:57.364Z,-0.02
2023-01-22T12:49:23.994Z,0.14
2023-01-22T12:51:50.930Z,0.19
2023-01-22T12:54:17.637Z,0.28
2023-01-22T12:56:44.350Z,-0.04
2023-01-22T12:59:10.953Z,0.30
2023-01-22T13:01:37.519Z,0.19
2023-01-22T13:04:04.176Z,0.10
2023-01-22T13:06:30.574Z,0.39
2023-01-22T13:08:56.927Z,0.24
2023-01-22T13:11:23.308Z,-0.36
2023-01-22T13:13:49.661Z,-0.25
2023-01-22T13:16:16.099Z,-0.24
2023-01-22T13:18:43.034Z,-0.22
2023-01-22T13:21:10.276Z,0.07
2023-01-22T13:23:36.723Z,0.13
2023-01-22T13:26:03.089Z,0.08
2023-01-22T13:28:31.735Z,0.34
2023-01-22T13:30:58.111Z,0.15
2023-01-22T13:33:25.227Z,-0.10
2023-01-22T13:35:51.598Z,-0.17
2023-01-22T13:38:18.114Z,-0.26
2023-01-22T13:40:51.261Z,-0.15
2023-01-22T13:43:18.108Z,-0.65
2023-01-22T13:45:45.070Z,-0.28
2023-01-22T13:48:11.492Z,-0.01
2023-01-22T13:50:37.840Z,-0.07
2023-01-22T13:53:06.340Z,0.12
2023-01-22T13:55:32.739Z,0.23
2023-01-22T13:57:59.098Z,0.17
2023-01-22T14:00:25.485Z,0.31
2023-01-22T14:02:52.204Z,0.32
2023-01-22T14:05:18.711Z,0.09
2023-01-22T14:07:47.169Z,-0.07
2023-01-22T14:10:13.527Z,-0.11
2023-01-22T14:12:39.870Z,0.14
2023-01-22T14:15:06.245Z,0.13
2023-01-22T14:17:33.278Z,-0.13
2023-01-22T14:19:59.989Z,-0.16
2023-01-22T14:22:26.358Z,0.12
2023-01-22T14:24:52.765Z,0.17
2023-01-22T14:27:19.268Z,-0.11
2023-01-22T14:29:46.686Z,-0.09
2023-01-22T14:32:15.378Z,0.16
2023-01-22T14:34:41.760Z,0.34
2023-01-22T14:37:08.139Z,0.22
2023-01-22T14:39:34.523Z,-0.04
2023-01-22T14:42:03.188Z,0.18
2023-01-22T14:44:29.519Z,0.42
2023-01-22T14:47:03.071Z,0.27
2023-01-22T14:49:29.462Z,-0.14
2023-01-22T14:51:55.834Z,-0.07
2023-01-22T14:54:22.212Z,-0.13
2023-01-22T14:56:53.309Z,-0.11
2023-01-22T14:59:20.944Z,-0.07
2023-01-22T15:01:47.585Z,-0.03
2023-01-22T15:04:13.989Z,0.20
2023-01-22T15:06:40.328Z,0.18
2023-01-22T15:09:06.663Z,0.07
2023-01-22T15:11:33.052Z,0.01
2023-01-22T15:13:59.404Z,-0.18
2023-01-22T15:16:25.825Z,-0.27
2023-01-22T15:18:54.230Z,-0.33
2023-01-22T15:21:20.980Z,-0.41
2023-01-22T15:23:47.327Z,-0.59
2023-01-22T15:26:13.665Z,-0.54
2023-01-22T15:28:40.079Z,-0.38
2023-01-22T15:31:07.466Z,-0.33
2023-01-22T15:33:35.974Z,-0.51
2023-01-22T15:36:02.317Z,-0.35
2023-01-22T15:38:28.650Z,-0.41
2023-01-22T15:40:55.288Z,-0.63
2023-01-22T15:43:21.881Z,-0.57
2023-01-22T15:45:48.598Z,-0.48
2023-01-22T15:48:14.960Z,-0.35
2023-01-22T15:50:41.300Z,-0.36
2023-01-22T15:53:07.676Z,-0.41
2023-01-22T15:55:34.130Z,-0.27
2023-01-22T15:58:04.932Z,-0.43
2023-01-22T16:00:31.281Z,-0.32
2023-01-22T16:02:57.632Z,-0.32
2023-01-22T16:05:25.048Z,-0.61
2023-01-22T16:07:52.573Z,-0.64
2023-01-22T16:10:19.426Z,-0.61
2023-01-22T16:12:45.984Z,-0.52
2023-01-22T16:15:13.371Z,-0.51
2023-01-22T16:17:39.718Z,-0.41
2023-01-22T16:20:06.107Z,-0.51
2023-01-22T16:22:32.684Z,-0.38
2023-01-22T16:24:59.074Z,-0.30
2023-01-22T16:27:25.583Z,-0.20
2023-01-22T16:29:51.975Z,-0.29
2023-01-22T16:32:18.368Z,-0.34
2023-01-22T16:34:44.785Z,-0.34
2023-01-22T16:37:11.194Z,-0.25
2023-01-22T16:39:37.600Z,-0.38
2023-01-22T16:42:04.057Z,-0.55
2023-01-22T16:44:33.301Z,-0.60
2023-01-22T16:46:59.973Z,-0.63
2023-01-22T16:49:26.374Z,-0.45
2023-01-22T16:51:52.793Z,-0.29
2023-01-22T16:54:19.166Z,-0.76
2023-01-22T16:56:45.511Z,-0.74
2023-01-22T16:59:11.893Z,-0.84
2023-01-22T17:01:40.957Z,-0.91
2023-01-22T17:04:08.034Z,-0.80
2023-01-22T17:06:34.636Z,-0.94
2023-01-22T17:09:00.971Z,-0.77
2023-01-22T17:11:27.360Z,-0.71
2023-01-22T17:13:56.828Z,-0.76
2023-01-22T17:16:25.649Z,-0.65
2023-01-22T17:18:52.013Z,-0.48
2023-01-22T17:21:18.419Z,-0.48
2023-01-22T17:23:44.814Z,-0.73
2023-01-22T17:26:11.248Z,-0.69
2023-01-22T17:28:37.738Z,-0.70
2023-01-22T17:31:04.170Z,-0.64
2023-01-22T17:33:30.717Z,-0.47
2023-01-22T17:35:57.908Z,-0.48
2023-01-22T17:38:24.285Z,-0.51
2023-01-22T17:40:50.985Z,-0.47
2023-01-22T17:43:17.337Z,-0.44
2023-01-22T17:45:43.731Z,-0.35
2023-01-22T17:48:12.628Z,-0.36
2023-01-22T17:50:39.113Z,-0.56
2023-01-22T17:53:06.267Z,-0.66
2023-01-22T17:55:32.675Z,-0.59
2023-01-22T17:57:59.068Z,-0.51
2023-01-22T18:00:25.566Z,-0.63
2023-01-22T18:02:52.992Z,-0.45
2023-01-22T18:05:19.674Z,-0.36
2023-01-22T18:07:46.208Z,-0.89
2023-01-22T18:10:12.551Z,-0.94
2023-01-22T18:12:39.215Z,-0.86
2023-01-22T18:15:05.582Z,-1.04
2023-01-22T18:17:31.990Z,-0.97
2023-01-22T18:19:58.395Z,-0.98
2023-01-22T18:22:24.750Z,-0.93
2023-01-22T18:24:51.334Z,-0.92
2023-01-22T18:27:19.735Z,-0.81
2023-01-22T18:29:46.099Z,-0.83
2023-01-22T18:32:12.471Z,-0.99
2023-01-22T18:34:39.179Z,-1.03
2023-01-22T18:37:07.996Z,-1.06
2023-01-22T18:39:34.388Z,-0.95
2023-01-22T18:42:00.737Z,-0.87
2023-01-22T18:44:27.079Z,-0.86
2023-01-22T18:46:53.663Z,-0.66
2023-01-22T18:49:20.082Z,-0.80
2023-01-22T18:51:46.544Z,-0.97
2023-01-22T18:54:13.105Z,-0.91
2023-01-22T18:56:40.651Z,-0.85
2023-01-22T18:59:07.075Z,-0.75
2023-01-22T19:01:34.318Z,-0.85
2023-01-22T19:04:00.743Z,-1.07
2023-01-22T19:06:27.293Z,-0.90
2023-01-22T19:08:53.755Z,-0.70
2023-01-22T19:11:22.451Z,-0.61
2023-01-22T19:13:51.014Z,-0.50
2023-01-22T19:16:18.417Z,-0.50
2023-01-22T19:18:44.902Z,-0.54
2023-01-22T19:21:11.246Z,-0.55
2023-01-22T19:23:37.634Z,-0.47
2023-01-22T19:26:06.416Z,-0.43
2023-01-22T19:28:32.981Z,-0.36
2023-01-22T19:30:59.439Z,-0.38
2023-01-22T19:33:25.862Z,-0.30
2023-01-22T19:35:52.241Z,-0.29
2023-01-22T19:38:18.596Z,-0.47
2023-01-22T19:40:44.938Z,-0.95
2023-01-22T19:43:12.383Z,-1.11
2023-01-22T19:45:38.827Z,-1.15
2023-01-22T19:48:08.084Z,-1.06
2023-01-22T19:50:36.068Z,-0.86
2023-01-22T19:53:02.420Z,-0.97
2023-01-22T19:55:28.794Z,-0.97
2023-01-22T19:57:55.139Z,-0.81
2023-01-22T20:00:21.489Z,-0.82
2023-01-22T20:02:47.871Z,-0.63
2023-01-22T20:05:14.880Z,-0.75
2023-01-22T20:07:41.303Z,-0.83
2023-01-22T20:10:08.151Z,-0.88
2023-01-22T20:12:34.524Z,-1.09
2023-01-22T20:15:03.043Z,-1.24
2023-01-22T20:17:29.436Z,-1.26
2023-01-22T20:19:55.828Z,-1.39
2023-01-22T20:22:22.228Z,-1.16
2023-01-22T20:24:48.628Z,-1.09
2023-01-22T20:27:15.016Z,-1.03
2023-01-22T20:29:41.427Z,-0.95
2023-01-22T20:32:07.840Z,-1.02
2023-01-22T20:34:34.434Z,-1.02
2023-01-22T20:37:00.846Z,-0.86
2023-01-22T20:39:27.198Z,-1.06
2023-01-22T20:41:53.539Z,-1.10
2023-01-22T20:44:20.339Z,-0.88
2023-01-22T20:46:49.322Z,-0.81
2023-01-22T20:49:15.897Z,-0.68
2023-01-22T20:51:42.268Z,-0.55
2023-01-22T20:54:08.607Z,-0.48
2023-01-22T20:56:34.991Z,-0.61
2023-01-22T20:59:02.372Z,-0.70
2023-01-22T21:01:28.917Z,-0.88
2023-01-22T21:03:56.079Z,-0.99
2023-01-22T21:06:22.471Z,-1.02
2023-01-22T21:08:49.299Z,-0.86
2023-01-22T21:11:16.491Z,-0.79
2023-01-22T21:13:42.888Z,-0.80
2023-01-22T21:16:09.280Z,-0.76
2023-01-22T21:18:35.739Z,-0.74
2023-01-22T21:21:02.406Z,-0.65
2023-01-22T21:23:29.078Z,-0.83
2023-01-22T21:25:55.416Z,-0.88
2023-01-22T21:28:21.883Z,-0.95
2023-01-22T21:30:48.250Z,-1.01
2023-01-22T21:33:14.661Z,-1.22
2023-01-22T21:35:43.393Z,-1.19
2023-01-22T21:38:11.805Z,-1.26
2023-01-22T21:40:38.182Z,-1.20
2023-01-22T21:43:05.312Z,-1.14
2023-01-22T21:45:31.741Z,-1.04
2023-01-22T21:47:58.169Z,-1.15
2023-01-22T21:50:24.564Z,-1.23
2023-01-22T21:52:51.964Z,-1.06
2023-01-22T21:55:18.327Z,-1.07
2023-01-22T21:57:44.856Z,-1.10
2023-01-22T22:00:11.254Z,-1.03
2023-01-22T22:02:37.879Z,-1.07
2023-01-22T22:05:05.311Z,-0.98
2023-01-22T22:07:32.616Z,-0.92
2023-01-22T22:09:59.353Z,-1.05
2023-01-22T22:12:26.056Z,-1.03
2023-01-22T22:14:52.412Z,-1.06
2023-01-22T22:17:18.919Z,-0.95
2023-01-22T22:19:45.309Z,-0.88
2023-01-22T22:22:12.702Z,-0.79
2023-01-22T22:24:39.063Z,-0.79
2023-01-22T22:27:05.796Z,-0.80
2023-01-22T22:29:33.224Z,-0.68
2023-01-22T22:31:59.667Z,-0.63
2023-01-22T22:34:26.285Z,-0.59
2023-01-22T22:36:53.985Z,-0.58
2023-01-22T22:39:20.428Z,-0.67
2023-01-22T22:41:49.974Z,-0.64
2023-01-22T22:44:16.329Z,-0.70
2023-01-22T22:46:43.070Z,-0.61
2023-01-22T22:49:11.741Z,-0.63
2023-01-22T22:51:38.216Z,-0.58
2023-01-22T22:54:04.573Z,-0.60
2023-01-22T22:56:30.961Z,-0.62
2023-01-22T22:58:57.356Z,-0.68
2023-01-22T23:01:23.740Z,-0.92
2023-01-22T23:03:50.965Z,-0.77
2023-01-22T23:06:17.542Z,-1.14
2023-01-22T23:08:44.454Z,-1.17
2023-01-22T23:11:10.994Z,-1.14
2023-01-22T23:13:37.398Z,-1.08
2023-01-22T23:16:04.013Z,-1.22
2023-01-22T23:18:30.407Z,-1.10
2023-01-22T23:20:57.111Z,-1.02
2023-01-22T23:23:23.498Z,-1.15
2023-01-22T23:25:49.853Z,-1.17
2023-01-22T23:28:18.423Z,-1.05
2023-01-22T23:30:44.949Z,-1.03
2023-01-22T23:33:11.337Z,-1.12
2023-01-22T23:35:37.724Z,-1.07
2023-01-22T23:38:04.121Z,-1.29
2023-01-22T23:40:30.518Z,-1.18
2023-01-22T23:42:56.861Z,-1.06
2023-01-22T23:45:24.206Z,-1.04
2023-01-22T23:47:50.553Z,-1.09
2023-01-22T23:50:17.193Z,-1.18
2023-01-22T23:52:43.786Z,-1.27
2023-01-22T23:55:10.172Z,-1.12
2023-01-22T23:57:36.523Z,-1.26
